sensor_id;sensor_type;location;lat;lon;timestamp;temperature;humidity
23562;DHT22;11959;49.418;8.728;2023-01-09T00:01:46;8.90;99.90
23562;DHT22;11959;49.418;8.728;2023-01-09T00:04:12;9.00;99.90
23562;DHT22;11959;49.418;8.728;2023-01-09T00:06:38;9.00;99.90
23562;DHT22;11959;49.418;8.728;2023-01-09T00:09:08;9.00;99.90
23562;DHT22;11959;49.418;8.728;2023-01-09T00:11:34;9.00;99.90
23562;DHT22;11959;49.418;8.728;2023-01-09T00:14:00;9.00;99.90
23562;DHT22;11959;49.418;8.728;2023-01-09T00:16:26;8.90;99.90
23562;DHT22;11959;49.418;8.728;2023-01-09T00:18:51;8.90;99.90
23562;DHT22;11959;49.418;8.728;2023-01-09T00:21:18;8.90;99.90
23562;DHT22;11959;49.418;8.728;2023-01-09T00:23:44;8.90;99.90
23562;DHT22;11959;49.418;8.728;2023-01-09T00:26:16;8.90;99.90
23562;DHT22;11959;49.418;8.728;2023-01-09T00:28:43;9.00;99.90
23562;DHT22;11959;49.418;8.728;2023-01-09T00:31:09;8.90;99.90
23562;DHT22;11959;49.418;8.728;2023-01-09T00:33:40;8.90;99.90
23562;DHT22;11959;49.418;8.728;2023-01-09T00:36:06;9.00;99.90
23562;DHT22;11959;49.418;8.728;2023-01-09T00:38:32;9.00;99.90
23562;DHT22;11959;49.418;8.728;2023-01-09T00:40:58;9.00;99.90
23562;DHT22;11959;49.418;8.728;2023-01-09T00:43:29;9.00;99.90
23562;DHT22;11959;49.418;8.728;2023-01-09T00:45:56;9.00;99.90
23562;DHT22;11959;49.418;8.728;2023-01-09T00:48:23;8.90;99.90
23562;DHT22;11959;49.418;8.728;2023-01-09T00:50:52;8.90;99.90
23562;DHT22;11959;49.418;8.728;2023-01-09T00:53:21;8.90;99.90
23562;DHT22;11959;49.418;8.728;2023-01-09T00:55:48;9.00;99.90
23562;DHT22;11959;49.418;8.728;2023-01-09T00:58:14;8.90;99.90
23562;DHT22;11959;49.418;8.728;2023-01-09T01:00:40;8.90;99.90
23562;DHT22;11959;49.418;8.728;2023-01-09T01:03:06;8.90;99.90
23562;DHT22;11959;49.418;8.728;2023-01-09T01:05:32;8.90;99.90
23562;DHT22;11959;49.418;8.728;2023-01-09T01:08:17;8.90;99.90
23562;DHT22;11959;49.418;8.728;2023-01-09T01:10:44;8.90;99.90
23562;DHT22;11959;49.418;8.728;2023-01-09T01:13:11;8.90;99.90
23562;DHT22;11959;49.418;8.728;2023-01-09T01:15:39;8.90;99.90
23562;DHT22;11959;49.418;8.728;2023-01-09T01:18:05;8.90;99.90
23562;DHT22;11959;49.418;8.728;2023-01-09T01:20:30;8.90;99.90
23562;DHT22;11959;49.418;8.728;2023-01-09T01:22:56;9.00;99.90
23562;DHT22;11959;49.418;8.728;2023-01-09T01:25:22;9.00;99.90
23562;DHT22;11959;49.418;8.728;2023-01-09T01:27:48;9.00;99.90
23562;DHT22;11959;49.418;8.728;2023-01-09T01:30:15;9.00;99.90
23562;DHT22;11959;49.418;8.728;2023-01-09T01:32:41;9.00;99.90
23562;DHT22;11959;49.418;8.728;2023-01-09T01:35:07;9.00;99.90
23562;DHT22;11959;49.418;8.728;2023-01-09T01:37:37;9.10;99.90
23562;DHT22;11959;49.418;8.728;2023-01-09T01:40:04;9.10;99.90
23562;DHT22;11959;49.418;8.728;2023-01-09T01:42:30;9.10;99.90
23562;DHT22;11959;49.418;8.728;2023-01-09T01:45:09;9.10;99.90
23562;DHT22;11959;49.418;8.728;2023-01-09T01:52:55;9.10;99.90
23562;DHT22;11959;49.418;8.728;2023-01-09T01:55:23;9.10;99.90
23562;DHT22;11959;49.418;8.728;2023-01-09T01:57:52;9.10;99.90
23562;DHT22;11959;49.418;8.728;2023-01-09T02:00:22;9.10;99.90
23562;DHT22;11959;49.418;8.728;2023-01-09T02:02:49;9.10;99.90
23562;DHT22;11959;49.418;8.728;2023-01-09T02:05:15;9.10;99.90
23562;DHT22;11959;49.418;8.728;2023-01-09T02:07:41;9.00;99.90
23562;DHT22;11959;49.418;8.728;2023-01-09T02:10:07;9.10;99.90
23562;DHT22;11959;49.418;8.728;2023-01-09T02:12:33;9.10;99.90
23562;DHT22;11959;49.418;8.728;2023-01-09T02:15:11;9.10;99.90
23562;DHT22;11959;49.418;8.728;2023-01-09T02:20:53;9.10;99.90
23562;DHT22;11959;49.418;8.728;2023-01-09T02:32:35;9.20;99.90
23562;DHT22;11959;49.418;8.728;2023-01-09T02:35:34;9.10;99.90
23562;DHT22;11959;49.418;8.728;2023-01-09T02:43:20;9.10;99.90
23562;DHT22;11959;49.418;8.728;2023-01-09T02:45:46;9.10;99.90
23562;DHT22;11959;49.418;8.728;2023-01-09T02:48:12;9.20;99.90
23562;DHT22;11959;49.418;8.728;2023-01-09T02:59:51;9.10;99.90
23562;DHT22;11959;49.418;8.728;2023-01-09T03:04:57;9.10;99.90
23562;DHT22;11959;49.418;8.728;2023-01-09T03:07:42;9.10;99.90
23562;DHT22;11959;49.418;8.728;2023-01-09T03:10:15;9.10;99.90
23562;DHT22;11959;49.418;8.728;2023-01-09T03:12:42;9.10;99.90
23562;DHT22;11959;49.418;8.728;2023-01-09T03:15:11;9.10;99.90
23562;DHT22;11959;49.418;8.728;2023-01-09T03:17:41;9.10;99.90
23562;DHT22;11959;49.418;8.728;2023-01-09T03:20:09;9.10;99.90
23562;DHT22;11959;49.418;8.728;2023-01-09T03:22:39;9.20;99.90
23562;DHT22;11959;49.418;8.728;2023-01-09T03:25:06;9.10;99.90
23562;DHT22;11959;49.418;8.728;2023-01-09T03:27:32;9.20;99.90
23562;DHT22;11959;49.418;8.728;2023-01-09T03:29:57;9.20;99.90
23562;DHT22;11959;49.418;8.728;2023-01-09T03:32:23;9.20;99.90
23562;DHT22;11959;49.418;8.728;2023-01-09T03:34:48;9.10;99.90
23562;DHT22;11959;49.418;8.728;2023-01-09T03:37:14;9.20;99.90
23562;DHT22;11959;49.418;8.728;2023-01-09T03:39:40;9.10;99.90
23562;DHT22;11959;49.418;8.728;2023-01-09T03:42:05;9.10;99.90
23562;DHT22;11959;49.418;8.728;2023-01-09T03:44:31;9.10;99.90
23562;DHT22;11959;49.418;8.728;2023-01-09T03:46:56;9.10;99.90
23562;DHT22;11959;49.418;8.728;2023-01-09T03:49:22;9.00;99.90
23562;DHT22;11959;49.418;8.728;2023-01-09T03:51:48;9.00;99.90
23562;DHT22;11959;49.418;8.728;2023-01-09T03:54:13;9.00;99.90
23562;DHT22;11959;49.418;8.728;2023-01-09T03:56:39;9.00;99.90
23562;DHT22;11959;49.418;8.728;2023-01-09T03:59:05;8.90;99.90
23562;DHT22;11959;49.418;8.728;2023-01-09T04:01:31;8.90;99.90
23562;DHT22;11959;49.418;8.728;2023-01-09T04:03:56;8.90;99.90
23562;DHT22;11959;49.418;8.728;2023-01-09T04:06:22;8.90;99.90
23562;DHT22;11959;49.418;8.728;2023-01-09T04:08:48;8.90;99.90
23562;DHT22;11959;49.418;8.728;2023-01-09T04:11:14;8.90;99.90
23562;DHT22;11959;49.418;8.728;2023-01-09T04:13:41;8.90;99.90
23562;DHT22;11959;49.418;8.728;2023-01-09T04:16:07;8.90;99.90
23562;DHT22;11959;49.418;8.728;2023-01-09T04:18:33;8.90;99.90
23562;DHT22;11959;49.418;8.728;2023-01-09T04:20:58;8.90;99.90
23562;DHT22;11959;49.418;8.728;2023-01-09T04:23:24;8.80;99.90
23562;DHT22;11959;49.418;8.728;2023-01-09T04:25:49;8.80;99.90
23562;DHT22;11959;49.418;8.728;2023-01-09T04:28:15;8.80;99.90
23562;DHT22;11959;49.418;8.728;2023-01-09T04:30:41;8.80;99.90
23562;DHT22;11959;49.418;8.728;2023-01-09T04:33:06;8.70;99.90
23562;DHT22;11959;49.418;8.728;2023-01-09T04:35:32;8.70;99.90
23562;DHT22;11959;49.418;8.728;2023-01-09T04:37:58;8.60;99.90
23562;DHT22;11959;49.418;8.728;2023-01-09T04:40:25;8.60;99.90
23562;DHT22;11959;49.418;8.728;2023-01-09T04:42:50;8.60;99.90
23562;DHT22;11959;49.418;8.728;2023-01-09T04:45:16;8.50;99.90
23562;DHT22;11959;49.418;8.728;2023-01-09T04:47:42;8.50;99.90
23562;DHT22;11959;49.418;8.728;2023-01-09T04:50:10;8.50;99.90
23562;DHT22;11959;49.418;8.728;2023-01-09T04:52:36;8.50;99.90
23562;DHT22;11959;49.418;8.728;2023-01-09T04:55:01;8.50;99.90
23562;DHT22;11959;49.418;8.728;2023-01-09T04:57:27;8.50;99.90
23562;DHT22;11959;49.418;8.728;2023-01-09T04:59:53;8.50;99.90
23562;DHT22;11959;49.418;8.728;2023-01-09T05:02:18;8.40;99.90
23562;DHT22;11959;49.418;8.728;2023-01-09T05:04:44;8.40;99.90
23562;DHT22;11959;49.418;8.728;2023-01-09T05:07:09;8.40;99.90
23562;DHT22;11959;49.418;8.728;2023-01-09T05:09:35;8.40;99.90
23562;DHT22;11959;49.418;8.728;2023-01-09T05:12:01;8.40;99.90
23562;DHT22;11959;49.418;8.728;2023-01-09T05:14:27;8.30;99.90
23562;DHT22;11959;49.418;8.728;2023-01-09T05:16:52;8.30;99.90
23562;DHT22;11959;49.418;8.728;2023-01-09T05:19:18;8.30;99.90
23562;DHT22;11959;49.418;8.728;2023-01-09T05:21:44;8.30;99.90
23562;DHT22;11959;49.418;8.728;2023-01-09T05:24:09;8.20;99.90
23562;DHT22;11959;49.418;8.728;2023-01-09T05:26:35;8.20;99.90
23562;DHT22;11959;49.418;8.728;2023-01-09T05:29:01;8.20;99.90
23562;DHT22;11959;49.418;8.728;2023-01-09T05:31:26;8.20;99.90
23562;DHT22;11959;49.418;8.728;2023-01-09T05:33:53;8.20;99.90
23562;DHT22;11959;49.418;8.728;2023-01-09T05:36:19;8.20;99.90
23562;DHT22;11959;49.418;8.728;2023-01-09T05:38:44;8.10;99.90
23562;DHT22;11959;49.418;8.728;2023-01-09T05:41:10;8.20;99.90
23562;DHT22;11959;49.418;8.728;2023-01-09T05:43:35;8.10;99.90
23562;DHT22;11959;49.418;8.728;2023-01-09T05:46:01;8.10;99.90
23562;DHT22;11959;49.418;8.728;2023-01-09T05:48:27;8.10;99.90
23562;DHT22;11959;49.418;8.728;2023-01-09T05:50:53;8.10;99.90
23562;DHT22;11959;49.418;8.728;2023-01-09T05:53:18;8.10;99.90
23562;DHT22;11959;49.418;8.728;2023-01-09T05:55:44;8.00;99.90
23562;DHT22;11959;49.418;8.728;2023-01-09T05:58:09;8.00;99.90
23562;DHT22;11959;49.418;8.728;2023-01-09T06:00:35;8.00;99.90
23562;DHT22;11959;49.418;8.728;2023-01-09T06:03:01;7.90;99.90
23562;DHT22;11959;49.418;8.728;2023-01-09T06:05:26;7.90;99.90
23562;DHT22;11959;49.418;8.728;2023-01-09T06:07:52;7.90;99.90
23562;DHT22;11959;49.418;8.728;2023-01-09T06:10:18;7.80;99.90
23562;DHT22;11959;49.418;8.728;2023-01-09T06:12:48;7.80;99.90
23562;DHT22;11959;49.418;8.728;2023-01-09T06:15:15;7.80;99.90
23562;DHT22;11959;49.418;8.728;2023-01-09T06:17:41;7.80;99.90
23562;DHT22;11959;49.418;8.728;2023-01-09T06:20:07;7.70;99.90
23562;DHT22;11959;49.418;8.728;2023-01-09T06:22:33;7.80;99.90
23562;DHT22;11959;49.418;8.728;2023-01-09T06:24:58;7.80;99.90
23562;DHT22;11959;49.418;8.728;2023-01-09T06:27:24;7.80;99.90
23562;DHT22;11959;49.418;8.728;2023-01-09T06:29:50;7.80;99.90
23562;DHT22;11959;49.418;8.728;2023-01-09T06:32:16;7.70;99.90
23562;DHT22;11959;49.418;8.728;2023-01-09T06:34:41;7.80;99.90
23562;DHT22;11959;49.418;8.728;2023-01-09T06:37:07;7.70;99.90
23562;DHT22;11959;49.418;8.728;2023-01-09T06:39:33;7.70;99.90
23562;DHT22;11959;49.418;8.728;2023-01-09T06:41:58;7.70;99.90
23562;DHT22;11959;49.418;8.728;2023-01-09T06:44:24;7.70;99.90
23562;DHT22;11959;49.418;8.728;2023-01-09T06:46:50;7.80;99.90
23562;DHT22;11959;49.418;8.728;2023-01-09T06:49:15;7.70;99.90
23562;DHT22;11959;49.418;8.728;2023-01-09T06:51:42;7.70;99.90
23562;DHT22;11959;49.418;8.728;2023-01-09T06:54:08;7.80;99.90
23562;DHT22;11959;49.418;8.728;2023-01-09T06:56:33;7.70;99.90
23562;DHT22;11959;49.418;8.728;2023-01-09T06:58:59;7.70;99.90
23562;DHT22;11959;49.418;8.728;2023-01-09T07:01:26;7.70;99.90
23562;DHT22;11959;49.418;8.728;2023-01-09T07:03:51;7.70;99.90
23562;DHT22;11959;49.418;8.728;2023-01-09T07:06:17;7.70;99.90
23562;DHT22;11959;49.418;8.728;2023-01-09T07:08:44;7.70;99.90
23562;DHT22;11959;49.418;8.728;2023-01-09T07:11:10;7.70;99.90
23562;DHT22;11959;49.418;8.728;2023-01-09T07:13:35;7.70;99.90
23562;DHT22;11959;49.418;8.728;2023-01-09T07:16:03;7.70;99.90
23562;DHT22;11959;49.418;8.728;2023-01-09T07:18:30;7.70;99.90
23562;DHT22;11959;49.418;8.728;2023-01-09T07:20:55;7.70;99.90
23562;DHT22;11959;49.418;8.728;2023-01-09T07:23:21;7.60;99.90
23562;DHT22;11959;49.418;8.728;2023-01-09T07:25:50;7.70;99.90
23562;DHT22;11959;49.418;8.728;2023-01-09T07:28:16;7.70;99.90
23562;DHT22;11959;49.418;8.728;2023-01-09T07:30:41;7.70;99.90
23562;DHT22;11959;49.418;8.728;2023-01-09T07:33:07;7.70;99.90
23562;DHT22;11959;49.418;8.728;2023-01-09T07:35:33;7.70;99.90
23562;DHT22;11959;49.418;8.728;2023-01-09T07:37:58;7.60;99.90
23562;DHT22;11959;49.418;8.728;2023-01-09T07:40:24;7.60;99.90
23562;DHT22;11959;49.418;8.728;2023-01-09T07:42:52;7.60;99.90
23562;DHT22;11959;49.418;8.728;2023-01-09T07:45:17;7.60;99.90
23562;DHT22;11959;49.418;8.728;2023-01-09T07:47:43;7.70;99.90
23562;DHT22;11959;49.418;8.728;2023-01-09T07:50:09;7.70;99.90
23562;DHT22;11959;49.418;8.728;2023-01-09T07:52:35;7.70;99.90
23562;DHT22;11959;49.418;8.728;2023-01-09T07:55:01;7.70;99.90
23562;DHT22;11959;49.418;8.728;2023-01-09T07:57:26;7.80;99.90
23562;DHT22;11959;49.418;8.728;2023-01-09T07:59:54;7.70;99.90
23562;DHT22;11959;49.418;8.728;2023-01-09T08:02:19;7.70;99.90
23562;DHT22;11959;49.418;8.728;2023-01-09T08:04:45;7.70;99.90
23562;DHT22;11959;49.418;8.728;2023-01-09T08:07:11;7.70;99.90
23562;DHT22;11959;49.418;8.728;2023-01-09T08:09:37;7.70;99.90
23562;DHT22;11959;49.418;8.728;2023-01-09T08:12:02;7.70;99.90
23562;DHT22;11959;49.418;8.728;2023-01-09T08:14:28;7.80;99.90
23562;DHT22;11959;49.418;8.728;2023-01-09T08:16:54;7.70;99.90
23562;DHT22;11959;49.418;8.728;2023-01-09T08:19:20;7.80;99.90
23562;DHT22;11959;49.418;8.728;2023-01-09T08:21:45;7.80;99.90
23562;DHT22;11959;49.418;8.728;2023-01-09T08:24:11;7.80;99.90
23562;DHT22;11959;49.418;8.728;2023-01-09T08:26:37;7.90;99.90
23562;DHT22;11959;49.418;8.728;2023-01-09T08:29:02;7.80;99.90
23562;DHT22;11959;49.418;8.728;2023-01-09T08:31:28;7.90;99.90
23562;DHT22;11959;49.418;8.728;2023-01-09T08:33:54;7.90;99.90
23562;DHT22;11959;49.418;8.728;2023-01-09T08:36:19;7.90;99.90
23562;DHT22;11959;49.418;8.728;2023-01-09T08:38:45;7.90;99.90
23562;DHT22;11959;49.418;8.728;2023-01-09T08:41:11;8.00;99.90
23562;DHT22;11959;49.418;8.728;2023-01-09T08:43:55;8.00;99.90
23562;DHT22;11959;49.418;8.728;2023-01-09T08:46:39;8.00;99.90
23562;DHT22;11959;49.418;8.728;2023-01-09T08:49:24;8.00;99.90
23562;DHT22;11959;49.418;8.728;2023-01-09T08:51:49;8.00;99.90
23562;DHT22;11959;49.418;8.728;2023-01-09T08:54:17;8.00;99.90
23562;DHT22;11959;49.418;8.728;2023-01-09T08:56:51;8.10;99.90
23562;DHT22;11959;49.418;8.728;2023-01-09T08:59:18;8.10;99.90
23562;DHT22;11959;49.418;8.728;2023-01-09T09:01:44;8.10;99.90
23562;DHT22;11959;49.418;8.728;2023-01-09T09:04:10;8.20;99.90
23562;DHT22;11959;49.418;8.728;2023-01-09T09:06:35;8.20;99.90
23562;DHT22;11959;49.418;8.728;2023-01-09T09:09:01;8.20;99.90
23562;DHT22;11959;49.418;8.728;2023-01-09T09:11:31;8.20;99.90
23562;DHT22;11959;49.418;8.728;2023-01-09T09:13:57;8.30;99.90
23562;DHT22;11959;49.418;8.728;2023-01-09T09:16:26;8.30;99.90
23562;DHT22;11959;49.418;8.728;2023-01-09T09:18:52;8.40;99.90
23562;DHT22;11959;49.418;8.728;2023-01-09T09:21:18;8.40;99.90
23562;DHT22;11959;49.418;8.728;2023-01-09T09:23:45;8.40;99.90
23562;DHT22;11959;49.418;8.728;2023-01-09T09:26:11;8.40;99.90
23562;DHT22;11959;49.418;8.728;2023-01-09T09:28:36;8.40;99.90
23562;DHT22;11959;49.418;8.728;2023-01-09T09:31:06;8.40;99.90
23562;DHT22;11959;49.418;8.728;2023-01-09T09:33:32;8.30;99.90
23562;DHT22;11959;49.418;8.728;2023-01-09T09:35:58;8.40;99.90
23562;DHT22;11959;49.418;8.728;2023-01-09T09:38:24;8.30;99.90
23562;DHT22;11959;49.418;8.728;2023-01-09T09:47:34;8.30;99.90
23562;DHT22;11959;49.418;8.728;2023-01-09T09:53:25;8.50;99.90
23562;DHT22;11959;49.418;8.728;2023-01-09T09:55:53;8.40;99.90
23562;DHT22;11959;49.418;8.728;2023-01-09T09:58:36;8.40;99.90
23562;DHT22;11959;49.418;8.728;2023-01-09T10:01:03;8.40;99.90
23562;DHT22;11959;49.418;8.728;2023-01-09T10:03:43;8.40;99.90
23562;DHT22;11959;49.418;8.728;2023-01-09T10:06:31;8.40;99.90
23562;DHT22;11959;49.418;8.728;2023-01-09T10:12:14;8.50;99.90
23562;DHT22;11959;49.418;8.728;2023-01-09T10:14:44;8.50;99.90
23562;DHT22;11959;49.418;8.728;2023-01-09T10:22:58;8.50;99.90
23562;DHT22;11959;49.418;8.728;2023-01-09T10:38:52;8.60;99.90
23562;DHT22;11959;49.418;8.728;2023-01-09T10:44:17;8.60;99.90
23562;DHT22;11959;49.418;8.728;2023-01-09T10:46:52;8.60;99.90
23562;DHT22;11959;49.418;8.728;2023-01-09T10:49:19;8.60;99.90
23562;DHT22;11959;49.418;8.728;2023-01-09T10:51:52;8.70;99.90
23562;DHT22;11959;49.418;8.728;2023-01-09T10:54:21;8.70;99.90
23562;DHT22;11959;49.418;8.728;2023-01-09T10:56:55;8.70;99.90
23562;DHT22;11959;49.418;8.728;2023-01-09T10:59:24;8.70;99.90
23562;DHT22;11959;49.418;8.728;2023-01-09T11:01:50;8.70;99.90
23562;DHT22;11959;49.418;8.728;2023-01-09T11:04:27;8.70;99.90
23562;DHT22;11959;49.418;8.728;2023-01-09T11:07:04;8.70;99.90
23562;DHT22;11959;49.418;8.728;2023-01-09T11:10:05;8.60;99.90
23562;DHT22;11959;49.418;8.728;2023-01-09T11:12:35;8.60;99.90
23562;DHT22;11959;49.418;8.728;2023-01-09T11:17:48;8.50;99.90
23562;DHT22;11959;49.418;8.728;2023-01-09T11:20:26;8.70;99.90
23562;DHT22;11959;49.418;8.728;2023-01-09T11:22:54;8.70;99.90
23562;DHT22;11959;49.418;8.728;2023-01-09T11:25:25;8.80;99.90
23562;DHT22;11959;49.418;8.728;2023-01-09T11:30:26;8.80;99.90
23562;DHT22;11959;49.418;8.728;2023-01-09T11:32:53;8.80;99.90
23562;DHT22;11959;49.418;8.728;2023-01-09T11:35:28;8.70;99.90
23562;DHT22;11959;49.418;8.728;2023-01-09T11:38:03;8.70;99.90
23562;DHT22;11959;49.418;8.728;2023-01-09T11:40:35;8.70;99.90
23562;DHT22;11959;49.418;8.728;2023-01-09T11:43:10;8.70;99.90
23562;DHT22;11959;49.418;8.728;2023-01-09T11:45:45;8.70;99.90
23562;DHT22;11959;49.418;8.728;2023-01-09T11:48:36;8.70;99.90
23562;DHT22;11959;49.418;8.728;2023-01-09T11:51:14;8.70;99.90
23562;DHT22;11959;49.418;8.728;2023-01-09T11:56:36;8.60;99.90
23562;DHT22;11959;49.418;8.728;2023-01-09T11:59:10;8.50;99.90
23562;DHT22;11959;49.418;8.728;2023-01-09T12:04:56;8.40;99.90
23562;DHT22;11959;49.418;8.728;2023-01-09T12:15:37;8.40;99.90
23562;DHT22;11959;49.418;8.728;2023-01-09T12:26:42;8.40;99.90
23562;DHT22;11959;49.418;8.728;2023-01-09T12:29:39;8.40;99.90
23562;DHT22;11959;49.418;8.728;2023-01-09T12:38:00;8.40;99.90
23562;DHT22;11959;49.418;8.728;2023-01-09T12:43:28;8.40;99.90
23562;DHT22;11959;49.418;8.728;2023-01-09T12:51:20;8.30;99.90
23562;DHT22;11959;49.418;8.728;2023-01-09T12:53:54;8.30;99.90
23562;DHT22;11959;49.418;8.728;2023-01-09T12:56:28;8.30;99.90
23562;DHT22;11959;49.418;8.728;2023-01-09T12:59:03;8.30;99.90
23562;DHT22;11959;49.418;8.728;2023-01-09T13:01:40;8.30;99.90
23562;DHT22;11959;49.418;8.728;2023-01-09T13:04:24;8.30;99.90
23562;DHT22;11959;49.418;8.728;2023-01-09T13:07:01;8.30;99.90
23562;DHT22;11959;49.418;8.728;2023-01-09T13:12:22;8.30;99.90
23562;DHT22;11959;49.418;8.728;2023-01-09T13:14:54;8.30;99.90
23562;DHT22;11959;49.418;8.728;2023-01-09T13:17:25;8.40;99.90
23562;DHT22;11959;49.418;8.728;2023-01-09T13:19:52;8.50;99.90
23562;DHT22;11959;49.418;8.728;2023-01-09T13:22:19;8.50;99.90
23562;DHT22;11959;49.418;8.728;2023-01-09T13:27:17;8.40;99.90
23562;DHT22;11959;49.418;8.728;2023-01-09T13:29:47;8.40;99.90
23562;DHT22;11959;49.418;8.728;2023-01-09T13:35:22;8.30;99.90
23562;DHT22;11959;49.418;8.728;2023-01-09T13:37:52;8.30;99.90
23562;DHT22;11959;49.418;8.728;2023-01-09T13:42:44;8.30;99.90
23562;DHT22;11959;49.418;8.728;2023-01-09T13:45:20;8.30;99.90
23562;DHT22;11959;49.418;8.728;2023-01-09T13:50:34;8.20;99.90
23562;DHT22;11959;49.418;8.728;2023-01-09T13:58:24;8.30;99.90
23562;DHT22;11959;49.418;8.728;2023-01-09T14:00:54;8.20;99.90
23562;DHT22;11959;49.418;8.728;2023-01-09T14:03:26;8.30;99.90
23562;DHT22;11959;49.418;8.728;2023-01-09T14:08:28;8.30;99.90
23562;DHT22;11959;49.418;8.728;2023-01-09T14:10:56;8.30;99.90
23562;DHT22;11959;49.418;8.728;2023-01-09T14:16:00;8.20;99.90
23562;DHT22;11959;49.418;8.728;2023-01-09T14:18:32;8.20;99.90
23562;DHT22;11959;49.418;8.728;2023-01-09T14:21:32;8.30;99.90
23562;DHT22;11959;49.418;8.728;2023-01-09T14:24:01;8.30;99.90
23562;DHT22;11959;49.418;8.728;2023-01-09T14:26:52;8.30;99.90
23562;DHT22;11959;49.418;8.728;2023-01-09T14:29:37;8.20;99.90
23562;DHT22;11959;49.418;8.728;2023-01-09T14:37:19;8.30;99.90
23562;DHT22;11959;49.418;8.728;2023-01-09T14:39:46;8.30;99.90
23562;DHT22;11959;49.418;8.728;2023-01-09T14:42:19;8.30;99.90
23562;DHT22;11959;49.418;8.728;2023-01-09T14:50:07;8.30;99.90
23562;DHT22;11959;49.418;8.728;2023-01-09T15:01:12;8.20;99.90
23562;DHT22;11959;49.418;8.728;2023-01-09T15:03:52;8.20;99.90
23562;DHT22;11959;49.418;8.728;2023-01-09T15:06:27;8.20;99.90
23562;DHT22;11959;49.418;8.728;2023-01-09T15:11:43;8.20;99.90
23562;DHT22;11959;49.418;8.728;2023-01-09T15:14:33;8.20;99.90
23562;DHT22;11959;49.418;8.728;2023-01-09T15:17:01;8.20;99.90
23562;DHT22;11959;49.418;8.728;2023-01-09T15:19:29;8.20;99.90
23562;DHT22;11959;49.418;8.728;2023-01-09T15:22:04;8.20;99.90
23562;DHT22;11959;49.418;8.728;2023-01-09T15:24:32;8.20;99.90
23562;DHT22;11959;49.418;8.728;2023-01-09T15:27:19;8.20;99.90
23562;DHT22;11959;49.418;8.728;2023-01-09T15:29:47;8.20;99.90
23562;DHT22;11959;49.418;8.728;2023-01-09T15:32:21;8.20;99.90
23562;DHT22;11959;49.418;8.728;2023-01-09T15:34:48;8.20;99.90
23562;DHT22;11959;49.418;8.728;2023-01-09T15:37:32;8.30;99.90
23562;DHT22;11959;49.418;8.728;2023-01-09T15:40:16;8.30;99.90
23562;DHT22;11959;49.418;8.728;2023-01-09T15:42:46;8.30;99.90
23562;DHT22;11959;49.418;8.728;2023-01-09T15:45:27;8.20;99.90
23562;DHT22;11959;49.418;8.728;2023-01-09T15:48:12;8.20;99.90
23562;DHT22;11959;49.418;8.728;2023-01-09T15:50:40;8.20;99.90
23562;DHT22;11959;49.418;8.728;2023-01-09T15:53:21;8.10;99.90
23562;DHT22;11959;49.418;8.728;2023-01-09T15:58:41;8.00;99.90
23562;DHT22;11959;49.418;8.728;2023-01-09T16:03:52;8.00;99.90
23562;DHT22;11959;49.418;8.728;2023-01-09T16:06:29;8.00;99.90
23562;DHT22;11959;49.418;8.728;2023-01-09T16:08:59;8.00;99.90
23562;DHT22;11959;49.418;8.728;2023-01-09T16:11:37;8.00;99.90
23562;DHT22;11959;49.418;8.728;2023-01-09T16:14:24;8.00;99.90
23562;DHT22;11959;49.418;8.728;2023-01-09T16:16:52;7.90;99.90
23562;DHT22;11959;49.418;8.728;2023-01-09T16:19:47;7.90;99.90
23562;DHT22;11959;49.418;8.728;2023-01-09T16:22:20;7.90;99.90
23562;DHT22;11959;49.418;8.728;2023-01-09T16:24:47;7.90;99.90
23562;DHT22;11959;49.418;8.728;2023-01-09T16:29:47;7.80;99.90
23562;DHT22;11959;49.418;8.728;2023-01-09T16:32:20;7.80;99.90
23562;DHT22;11959;49.418;8.728;2023-01-09T16:34:55;7.70;99.90
23562;DHT22;11959;49.418;8.728;2023-01-09T16:37:22;7.70;99.90
23562;DHT22;11959;49.418;8.728;2023-01-09T16:40:21;7.70;99.90
23562;DHT22;11959;49.418;8.728;2023-01-09T16:42:51;7.60;99.90
23562;DHT22;11959;49.418;8.728;2023-01-09T16:45:35;7.70;99.90
23562;DHT22;11959;49.418;8.728;2023-01-09T16:48:07;7.60;99.90
23562;DHT22;11959;49.418;8.728;2023-01-09T16:50:34;7.60;99.90
23562;DHT22;11959;49.418;8.728;2023-01-09T16:53:05;7.70;99.90
23562;DHT22;11959;49.418;8.728;2023-01-09T16:55:36;7.70;99.90
23562;DHT22;11959;49.418;8.728;2023-01-09T16:58:02;7.70;99.90
23562;DHT22;11959;49.418;8.728;2023-01-09T17:00:28;7.70;99.90
23562;DHT22;11959;49.418;8.728;2023-01-09T17:02:54;7.70;99.90
23562;DHT22;11959;49.418;8.728;2023-01-09T17:05:21;7.70;99.90
23562;DHT22;11959;49.418;8.728;2023-01-09T17:07:47;7.70;99.90
23562;DHT22;11959;49.418;8.728;2023-01-09T17:10:18;7.70;99.90
23562;DHT22;11959;49.418;8.728;2023-01-09T17:12:44;7.70;99.90
23562;DHT22;11959;49.418;8.728;2023-01-09T17:15:10;7.60;99.90
23562;DHT22;11959;49.418;8.728;2023-01-09T17:17:36;7.60;99.90
23562;DHT22;11959;49.418;8.728;2023-01-09T17:20:01;7.60;99.90
23562;DHT22;11959;49.418;8.728;2023-01-09T17:22:28;7.60;99.90
23562;DHT22;11959;49.418;8.728;2023-01-09T17:24:54;7.60;99.90
23562;DHT22;11959;49.418;8.728;2023-01-09T17:27:38;7.60;99.90
23562;DHT22;11959;49.418;8.728;2023-01-09T17:30:22;7.60;99.90
23562;DHT22;11959;49.418;8.728;2023-01-09T17:32:48;7.50;99.90
23562;DHT22;11959;49.418;8.728;2023-01-09T17:35:14;7.50;99.90
23562;DHT22;11959;49.418;8.728;2023-01-09T17:37:41;7.50;99.90
23562;DHT22;11959;49.418;8.728;2023-01-09T17:40:21;7.50;99.90
23562;DHT22;11959;49.418;8.728;2023-01-09T17:42:47;7.40;99.90
23562;DHT22;11959;49.418;8.728;2023-01-09T17:45:13;7.40;99.90
23562;DHT22;11959;49.418;8.728;2023-01-09T17:47:38;7.40;99.90
23562;DHT22;11959;49.418;8.728;2023-01-09T17:50:04;7.40;99.90
23562;DHT22;11959;49.418;8.728;2023-01-09T17:52:30;7.40;99.90
23562;DHT22;11959;49.418;8.728;2023-01-09T17:55:01;7.30;99.90
23562;DHT22;11959;49.418;8.728;2023-01-09T17:57:30;7.30;99.90
23562;DHT22;11959;49.418;8.728;2023-01-09T18:03:19;7.30;99.90
23562;DHT22;11959;49.418;8.728;2023-01-09T18:05:47;7.20;99.90
23562;DHT22;11959;49.418;8.728;2023-01-09T18:08:18;7.20;99.90
23562;DHT22;11959;49.418;8.728;2023-01-09T18:10:54;7.20;99.90
23562;DHT22;11959;49.418;8.728;2023-01-09T18:13:29;7.20;99.90
23562;DHT22;11959;49.418;8.728;2023-01-09T18:15:56;7.20;99.90
23562;DHT22;11959;49.418;8.728;2023-01-09T18:18:25;7.20;99.90
23562;DHT22;11959;49.418;8.728;2023-01-09T18:20:54;7.20;99.90
23562;DHT22;11959;49.418;8.728;2023-01-09T18:23:40;7.20;99.90
23562;DHT22;11959;49.418;8.728;2023-01-09T18:26:10;7.20;99.90
23562;DHT22;11959;49.418;8.728;2023-01-09T18:28:45;7.10;99.90
23562;DHT22;11959;49.418;8.728;2023-01-09T18:31:11;7.10;99.90
23562;DHT22;11959;49.418;8.728;2023-01-09T18:33:51;7.10;99.90
23562;DHT22;11959;49.418;8.728;2023-01-09T18:36:20;7.10;99.90
23562;DHT22;11959;49.418;8.728;2023-01-09T18:39:01;7.10;99.90
23562;DHT22;11959;49.418;8.728;2023-01-09T18:41:27;7.10;99.90
23562;DHT22;11959;49.418;8.728;2023-01-09T18:43:55;7.10;99.90
23562;DHT22;11959;49.418;8.728;2023-01-09T18:46:22;7.10;99.90
23562;DHT22;11959;49.418;8.728;2023-01-09T18:48:52;7.10;99.90